createdAt,value
2023-03-31T00:01:42.933Z,8.27
2023-03-31T00:04:13.769Z,7.07
2023-03-31T00:06:44.006Z,5.53
2023-03-31T00:09:13.406Z,6.37
2023-03-31T00:11:41.239Z,4.93
2023-03-31T00:14:09.772Z,3.63
2023-03-31T00:16:39.427Z,5.77
2023-03-31T00:19:10.324Z,5.47
2023-03-31T00:21:38.036Z,7.50
2023-03-31T00:24:08.363Z,6.60
2023-03-31T00:26:37.342Z,6.03
2023-03-31T00:29:06.719Z,7.03
2023-03-31T00:31:36.036Z,6.50
2023-03-31T00:34:04.129Z,5.73
2023-03-31T00:36:32.027Z,5.90
2023-03-31T00:39:02.809Z,5.60
2023-03-31T00:41:32.232Z,4.03
2023-03-31T00:44:08.374Z,6.03
2023-03-31T00:46:41.088Z,5.63
2023-03-31T00:49:18.165Z,5.97
2023-03-31T00:51:46.790Z,7.27
2023-03-31T00:54:15.379Z,7.53
2023-03-31T00:56:48.504Z,4.37
2023-03-31T00:59:17.876Z,6.43
2023-03-31T01:01:50.538Z,5.43
2023-03-31T01:04:22.824Z,9.53
2023-03-31T01:07:00.866Z,5.50
2023-03-31T01:09:35.097Z,5.93
2023-03-31T01:12:08.804Z,4.73
2023-03-31T01:14:37.441Z,3.43
2023-03-31T01:17:09.682Z,6.90
2023-03-31T01:19:51.935Z,3.43
2023-03-31T01:22:49.474Z,5.13
2023-03-31T01:25:56.543Z,4.47
2023-03-31T01:28:38.711Z,5.57
2023-03-31T01:31:45.919Z,5.13
2023-03-31T01:34:42.096Z,6.17
2023-03-31T01:37:31.331Z,5.30
2023-03-31T01:40:35.617Z,4.60
2023-03-31T01:43:10.624Z,5.40
2023-03-31T01:45:51.044Z,4.97
2023-03-31T01:48:23.802Z,8.57
2023-03-31T01:50:59.144Z,12.30
2023-03-31T01:53:33.769Z,10.03
2023-03-31T01:56:08.542Z,9.20
2023-03-31T01:58:40.150Z,8.50
2023-03-31T02:01:17.869Z,8.10
2023-03-31T02:03:51.977Z,10.67
2023-03-31T02:06:24.517Z,14.57
2023-03-31T02:08:57.666Z,8.00
2023-03-31T02:11:29.750Z,4.13
2023-03-31T02:14:01.968Z,7.57
2023-03-31T02:16:34.225Z,6.47
2023-03-31T02:19:06.604Z,8.33
2023-03-31T02:21:38.312Z,7.67
2023-03-31T02:24:10.646Z,7.70
2023-03-31T02:26:43.964Z,7.60
2023-03-31T02:29:12.022Z,7.43
2023-03-31T02:31:48.156Z,6.60
2023-03-31T02:34:16.282Z,9.47
2023-03-31T02:36:45.666Z,5.97
2023-03-31T02:39:21.192Z,11.50
2023-03-31T02:41:50.858Z,8.83
2023-03-31T02:44:21.872Z,8.80
2023-03-31T02:46:50.320Z,12.57
2023-03-31T02:49:19.863Z,11.33
2023-03-31T02:52:17.695Z,6.90
2023-03-31T02:55:18.396Z,11.20
2023-03-31T02:58:06.692Z,7.63
2023-03-31T03:00:46.942Z,10.70
2023-03-31T03:03:28.290Z,15.27
2023-03-31T03:06:06.858Z,8.93
2023-03-31T03:09:18.375Z,8.97
2023-03-31T03:11:53.062Z,7.60
2023-03-31T03:14:29.782Z,8.77
2023-03-31T03:17:03.602Z,9.00
2023-03-31T03:19:31.402Z,11.13
2023-03-31T03:21:59.147Z,9.43
2023-03-31T03:24:30.212Z,10.83
2023-03-31T03:26:58.458Z,10.60
2023-03-31T03:29:28.305Z,10.77
2023-03-31T03:31:56.109Z,13.37
2023-03-31T03:34:25.668Z,12.63
2023-03-31T03:36:53.432Z,9.53
2023-03-31T03:39:21.425Z,11.53
2023-03-31T03:41:49.233Z,11.63
2023-03-31T03:44:17.109Z,11.77
2023-03-31T03:46:46.330Z,10.23
2023-03-31T03:49:14.177Z,9.07
2023-03-31T03:51:41.990Z,9.67
2023-03-31T03:54:10.327Z,11.43
2023-03-31T03:56:38.175Z,12.17
2023-03-31T03:59:06.249Z,11.03
2023-03-31T04:01:34.056Z,13.40
2023-03-31T04:04:03.258Z,10.93
2023-03-31T04:06:31.616Z,15.33
2023-03-31T04:08:59.717Z,14.00
2023-03-31T04:11:28.141Z,11.70
2023-03-31T04:13:55.872Z,14.23
2023-03-31T04:16:25.438Z,11.13
2023-03-31T04:18:56.644Z,11.93
2023-03-31T04:21:26.346Z,7.53
2023-03-31T04:24:01.810Z,9.67
2023-03-31T04:26:42.927Z,10.27
2023-03-31T04:29:12.741Z,11.00
2023-03-31T04:31:43.425Z,11.37
2023-03-31T04:34:13.977Z,12.10
2023-03-31T04:36:46.991Z,9.00
2023-03-31T04:39:15.457Z,9.77
2023-03-31T04:41:43.236Z,11.77
2023-03-31T04:44:11.222Z,13.43
2023-03-31T04:46:39.132Z,13.27
2023-03-31T04:49:07.056Z,9.63
2023-03-31T04:51:34.967Z,8.60
2023-03-31T04:54:04.278Z,12.17
2023-03-31T04:56:32.128Z,10.40
2023-03-31T04:59:00.010Z,10.33
2023-03-31T05:01:27.905Z,20.63
2023-03-31T05:03:55.700Z,9.03
2023-03-31T05:06:23.691Z,11.43
2023-03-31T05:08:51.620Z,10.63
2023-03-31T05:11:21.240Z,9.50
2023-03-31T05:13:49.259Z,6.67
2023-03-31T05:16:17.493Z,12.67
2023-03-31T05:18:46.346Z,12.70
2023-03-31T05:21:16.305Z,8.27
2023-03-31T05:23:44.770Z,13.23
2023-03-31T05:26:13.837Z,12.50
2023-03-31T05:28:43.538Z,6.30
2023-03-31T05:31:13.018Z,6.00
2023-03-31T05:33:42.217Z,11.17
2023-03-31T05:36:11.878Z,11.13
2023-03-31T05:38:40.106Z,8.33
2023-03-31T05:41:09.480Z,10.43
2023-03-31T05:43:37.531Z,8.93
2023-03-31T05:46:07.992Z,8.87
2023-03-31T05:48:37.356Z,6.70
2023-03-31T05:51:05.496Z,6.73
2023-03-31T05:53:34.074Z,8.87
2023-03-31T05:56:04.529Z,6.33
2023-03-31T05:58:32.672Z,7.53
2023-03-31T06:01:07.793Z,6.43
2023-03-31T06:03:37.264Z,8.77
2023-03-31T06:06:08.106Z,5.50
2023-03-31T06:08:36.423Z,4.77
2023-03-31T06:11:06.690Z,5.67
2023-03-31T06:13:35.101Z,8.03
2023-03-31T06:16:03.342Z,5.63
2023-03-31T06:18:35.051Z,5.67
2023-03-31T06:21:03.969Z,5.90
2023-03-31T06:23:32.300Z,5.97
2023-03-31T06:26:02.367Z,6.10
2023-03-31T06:28:30.822Z,5.13
2023-03-31T06:31:04.293Z,6.30
2023-03-31T06:33:35.134Z,7.63
2023-03-31T06:36:05.388Z,6.50
2023-03-31T06:38:33.885Z,8.30
2023-03-31T06:41:01.718Z,6.53
2023-03-31T06:43:29.489Z,7.07
2023-03-31T06:45:57.838Z,5.87
2023-03-31T06:48:26.657Z,5.23
2023-03-31T06:50:56.166Z,7.70
2023-03-31T06:53:23.972Z,7.47
2023-03-31T06:55:51.914Z,6.80
2023-03-31T06:58:19.658Z,6.83
2023-03-31T07:00:47.763Z,9.77
2023-03-31T07:03:17.206Z,7.13
2023-03-31T07:05:53.232Z,9.57
2023-03-31T07:08:23.234Z,5.87
2023-03-31T07:10:57.625Z,5.23
2023-03-31T07:13:26.375Z,6.33
2023-03-31T07:15:54.615Z,7.07
2023-03-31T07:18:26.337Z,6.80
2023-03-31T07:20:54.340Z,7.30
2023-03-31T07:23:23.644Z,10.10
2023-03-31T07:25:51.448Z,7.47
2023-03-31T07:28:19.454Z,6.83
2023-03-31T07:30:47.223Z,7.77
2023-03-31T07:33:15.176Z,5.80
2023-03-31T07:35:43.080Z,6.83
2023-03-31T07:38:12.428Z,7.83
2023-03-31T07:40:42.803Z,8.83
2023-03-31T07:43:10.929Z,6.57
2023-03-31T07:45:41.125Z,5.37
2023-03-31T07:48:09.142Z,7.07
2023-03-31T07:50:37.208Z,9.03
2023-03-31T07:53:09.026Z,10.67
2023-03-31T07:55:37.296Z,7.23
2023-03-31T07:58:06.747Z,7.97
2023-03-31T08:00:34.568Z,9.13
2023-03-31T08:03:02.629Z,9.27
2023-03-31T08:05:30.565Z,11.80
2023-03-31T08:07:58.445Z,6.47
2023-03-31T08:10:28.325Z,8.37
2023-03-31T08:12:56.318Z,8.47
2023-03-31T08:15:25.731Z,9.77
2023-03-31T08:17:53.783Z,8.23
2023-03-31T08:20:22.145Z,7.77
2023-03-31T08:22:50.150Z,5.00
2023-03-31T08:25:18.434Z,6.90
2023-03-31T08:27:48.877Z,8.43
2023-03-31T08:30:17.227Z,6.10
2023-03-31T08:32:47.281Z,5.77
2023-03-31T08:35:15.396Z,5.90
2023-03-31T08:37:43.286Z,3.57
2023-03-31T08:40:17.823Z,6.07
2023-03-31T08:42:48.466Z,7.10
2023-03-31T08:45:23.045Z,6.23
2023-03-31T08:47:57.538Z,7.70
2023-03-31T08:50:29.702Z,6.87
2023-03-31T08:53:07.597Z,5.27
2023-03-31T08:55:44.715Z,6.00
2023-03-31T08:58:26.050Z,6.00
2023-03-31T09:01:00.051Z,8.27
2023-03-31T09:03:36.718Z,7.57
2023-03-31T09:06:08.265Z,7.93
2023-03-31T09:08:38.655Z,7.70
2023-03-31T09:11:14.450Z,8.70
2023-03-31T09:14:18.930Z,8.63
2023-03-31T09:16:52.550Z,11.53
2023-03-31T09:19:33.874Z,8.57
2023-03-31T09:22:04.011Z,12.40
2023-03-31T09:24:36.692Z,12.70
2023-03-31T09:27:07.946Z,13.20
2023-03-31T09:29:43.709Z,11.33
2023-03-31T09:32:17.220Z,10.20
2023-03-31T09:34:47.789Z,11.07
2023-03-31T09:37:15.849Z,11.30
2023-03-31T09:39:44.086Z,11.87
2023-03-31T09:42:15.167Z,9.50
2023-03-31T09:44:46.623Z,9.20
2023-03-31T09:47:21.288Z,18.17
2023-03-31T09:49:53.568Z,12.10
2023-03-31T09:52:29.475Z,11.70
2023-03-31T09:55:00.412Z,12.43
2023-03-31T09:57:33.849Z,10.23
2023-03-31T10:00:17.950Z,8.13
2023-03-31T10:02:51.023Z,9.30
2023-03-31T10:05:31.865Z,12.23
2023-03-31T10:08:29.116Z,15.93
2023-03-31T10:10:59.247Z,11.13
2023-03-31T10:13:30.810Z,12.13
2023-03-31T10:16:05.266Z,11.27
2023-03-31T10:18:36.299Z,10.47
2023-03-31T10:21:08.122Z,10.73
2023-03-31T10:23:37.557Z,10.33
2023-03-31T10:26:06.496Z,13.93
2023-03-31T10:28:37.309Z,12.03
2023-03-31T10:31:06.620Z,11.73
2023-03-31T10:33:42.420Z,12.37
2023-03-31T10:36:22.388Z,12.13
2023-03-31T10:38:52.583Z,14.00
2023-03-31T10:41:23.178Z,11.33
2023-03-31T10:43:53.398Z,9.30
2023-03-31T10:46:22.868Z,11.87
2023-03-31T10:48:53.026Z,11.70
2023-03-31T10:51:27.772Z,9.50
2023-03-31T10:53:58.895Z,14.10
2023-03-31T10:56:37.071Z,14.20
2023-03-31T10:59:23.882Z,13.60
2023-03-31T11:02:02.194Z,10.37
2023-03-31T11:04:53.737Z,12.57
2023-03-31T11:07:36.740Z,13.77
2023-03-31T11:10:22.759Z,10.57
2023-03-31T11:12:58.969Z,13.60
2023-03-31T11:15:35.409Z,13.33
2023-03-31T11:18:16.539Z,10.67
2023-03-31T11:20:57.941Z,7.30
2023-03-31T11:23:34.115Z,5.87
2023-03-31T11:26:07.592Z,3.87
2023-03-31T11:28:59.777Z,4.03
2023-03-31T11:31:47.694Z,5.37
2023-03-31T11:34:38.933Z,5.53
2023-03-31T11:37:21.611Z,8.13
2023-03-31T11:40:08.038Z,8.87
2023-03-31T11:42:43.472Z,7.07
2023-03-31T11:45:16.981Z,7.53
2023-03-31T11:47:48.312Z,7.07
2023-03-31T11:50:20.088Z,7.27
2023-03-31T11:52:54.475Z,6.73
2023-03-31T11:55:27.405Z,5.47
2023-03-31T11:58:03.513Z,4.50
2023-03-31T12:00:35.945Z,7.03
2023-03-31T12:03:12.420Z,8.23
2023-03-31T12:05:46.271Z,10.47
2023-03-31T12:08:18.112Z,7.90
2023-03-31T12:10:52.525Z,7.37
2023-03-31T12:13:37.568Z,10.03
2023-03-31T12:16:10.587Z,9.67
2023-03-31T12:18:43.824Z,9.47
2023-03-31T12:21:12.375Z,8.27
2023-03-31T12:23:45.355Z,9.80
2023-03-31T12:26:29.535Z,8.50
2023-03-31T12:29:01.508Z,9.03
2023-03-31T12:31:33.066Z,10.93
2023-03-31T12:34:05.872Z,9.77
2023-03-31T12:36:46.646Z,8.67
2023-03-31T12:39:34.768Z,13.90
2023-03-31T12:42:17.001Z,12.37
2023-03-31T12:44:58.353Z,13.93
2023-03-31T12:47:42.984Z,8.97
2023-03-31T12:50:29.536Z,10.93
2023-03-31T12:53:06.465Z,11.37
2023-03-31T12:55:38.665Z,11.27
2023-03-31T12:58:45.423Z,10.53
2023-03-31T13:01:16.593Z,9.37
2023-03-31T13:03:54.098Z,12.43
2023-03-31T13:07:01.062Z,9.70
2023-03-31T13:09:43.616Z,8.73
2023-03-31T13:12:17.657Z,10.10
2023-03-31T13:14:49.293Z,10.93
2023-03-31T13:17:27.921Z,9.10
2023-03-31T13:19:57.722Z,11.73
2023-03-31T13:22:35.485Z,14.43
2023-03-31T13:25:37.139Z,10.53
2023-03-31T13:28:39.649Z,14.20
2023-03-31T13:31:10.384Z,9.97
2023-03-31T13:33:44.971Z,9.80
2023-03-31T13:37:00.873Z,9.47
2023-03-31T13:40:13.651Z,11.97
2023-03-31T13:43:18.856Z,7.13
2023-03-31T13:45:59.865Z,10.27
2023-03-31T13:48:39.550Z,7.20
2023-03-31T13:51:27.882Z,7.93
2023-03-31T13:54:20.873Z,6.77
2023-03-31T13:57:19.228Z,7.57
2023-03-31T14:00:13.094Z,5.97
2023-03-31T14:02:58.596Z,11.07
2023-03-31T14:05:35.937Z,6.53
2023-03-31T14:08:13.114Z,5.40
2023-03-31T14:10:42.761Z,8.33
2023-03-31T14:13:13.995Z,8.53
2023-03-31T14:15:47.962Z,9.20
2023-03-31T14:18:22.110Z,7.93
2023-03-31T14:21:21.200Z,9.30
2023-03-31T14:24:01.385Z,7.07
2023-03-31T14:26:47.117Z,4.90
2023-03-31T14:29:21.963Z,9.87
2023-03-31T14:32:00.603Z,8.83
2023-03-31T14:34:47.018Z,6.10
2023-03-31T14:37:21.208Z,7.93
2023-03-31T14:39:53.087Z,7.13
2023-03-31T14:42:23.628Z,4.20
2023-03-31T14:44:57.721Z,5.83
2023-03-31T14:47:29.255Z,5.27
2023-03-31T14:50:02.974Z,6.67
2023-03-31T14:52:35.654Z,10.20
2023-03-31T14:55:03.925Z,8.57
2023-03-31T14:57:35.513Z,9.50
2023-03-31T15:00:08.224Z,7.97
2023-03-31T15:02:41.749Z,7.60
2023-03-31T15:05:14.616Z,6.57
2023-03-31T15:07:44.198Z,9.40
2023-03-31T15:10:20.503Z,8.27
2023-03-31T15:12:49.715Z,9.87
2023-03-31T15:15:19.402Z,7.67
2023-03-31T15:17:49.346Z,7.73
2023-03-31T15:20:29.407Z,7.70
2023-03-31T15:23:03.243Z,12.20
2023-03-31T15:25:37.187Z,12.73
2023-03-31T15:28:08.296Z,8.60
2023-03-31T15:30:37.636Z,7.87
2023-03-31T15:35:58.975Z,7.40
2023-03-31T15:38:32.118Z,7.77
2023-03-31T15:41:01.183Z,5.07
2023-03-31T15:43:30.673Z,4.57
2023-03-31T15:45:59.801Z,4.37
2023-03-31T15:48:33.809Z,4.23
2023-03-31T15:51:03.726Z,5.37
2023-03-31T15:53:38.196Z,4.20
2023-03-31T15:56:07.582Z,6.77
2023-03-31T15:58:55.576Z,6.80
2023-03-31T16:01:25.279Z,8.93
2023-03-31T16:03:57.715Z,6.83
2023-03-31T16:06:36.211Z,8.87
2023-03-31T16:09:08.243Z,7.10
2023-03-31T16:11:41.307Z,4.37
2023-03-31T16:14:16.885Z,5.23
2023-03-31T16:16:51.801Z,6.47
2023-03-31T16:19:23.019Z,5.80
2023-03-31T16:21:55.096Z,3.37
2023-03-31T16:24:32.347Z,5.83
2023-03-31T16:27:05.985Z,4.33
2023-03-31T16:29:35.355Z,5.33
2023-03-31T16:32:12.967Z,4.70
2023-03-31T16:35:02.952Z,5.27
2023-03-31T16:37:31.010Z,4.00
2023-03-31T16:40:00.948Z,6.00
2023-03-31T16:42:29.212Z,5.93
2023-03-31T16:45:13.083Z,3.80
2023-03-31T16:47:45.208Z,3.33
2023-03-31T16:50:15.299Z,3.43
2023-03-31T16:52:43.974Z,4.90
2023-03-31T16:55:13.218Z,4.87
2023-03-31T16:57:41.409Z,4.47
2023-03-31T17:00:10.732Z,4.73
2023-03-31T17:02:39.022Z,4.67
2023-03-31T17:05:13.014Z,4.70
2023-03-31T17:07:41.648Z,3.57
2023-03-31T17:10:10.548Z,4.70
2023-03-31T17:12:40.146Z,5.47
2023-03-31T17:15:09.476Z,3.70
2023-03-31T17:17:37.852Z,4.60
2023-03-31T17:20:08.054Z,2.57
2023-03-31T17:22:36.418Z,2.93
2023-03-31T17:25:05.600Z,3.20
2023-03-31T17:27:33.811Z,5.50
2023-03-31T17:32:31.392Z,3.20
2023-03-31T17:34:59.676Z,5.87
2023-03-31T17:37:28.279Z,7.10
2023-03-31T17:39:57.247Z,6.20
2023-03-31T17:42:25.362Z,3.57
2023-03-31T17:44:53.694Z,5.53
2023-03-31T17:47:23.083Z,7.93
2023-03-31T17:49:50.948Z,5.13
2023-03-31T17:52:19.412Z,5.67
2023-03-31T17:54:49.447Z,4.13
2023-03-31T17:57:19.633Z,4.30
2023-03-31T17:59:48.698Z,4.47
2023-03-31T18:02:16.741Z,3.23
2023-03-31T18:04:46.166Z,4.90
2023-03-31T18:07:14.346Z,4.77
2023-03-31T18:09:42.678Z,5.60
2023-03-31T18:12:10.863Z,4.07
2023-03-31T18:14:39.524Z,4.50
2023-03-31T18:17:07.502Z,4.57
2023-03-31T18:19:35.536Z,4.57
2023-03-31T18:22:04.940Z,4.07
2023-03-31T18:24:33.039Z,8.10
2023-03-31T18:27:01.498Z,3.10
2023-03-31T18:29:29.287Z,4.37
2023-03-31T18:31:57.249Z,4.43
2023-03-31T18:34:25.384Z,7.80
2023-03-31T18:36:53.541Z,4.80
2023-03-31T18:39:23.056Z,4.07
2023-03-31T18:41:51.624Z,3.90
2023-03-31T18:44:19.525Z,4.90
2023-03-31T18:46:47.651Z,5.27
2023-03-31T18:49:15.641Z,4.87
2023-03-31T18:51:43.516Z,3.47
2023-03-31T18:54:11.456Z,3.07
2023-03-31T18:56:40.942Z,6.30
2023-03-31T18:59:08.766Z,2.57
2023-03-31T19:01:40.140Z,2.53
2023-03-31T19:04:08.450Z,3.63
2023-03-31T19:06:37.410Z,5.07
2023-03-31T19:09:05.298Z,6.30
2023-03-31T19:11:33.237Z,4.60
2023-03-31T19:14:02.664Z,3.33
2023-03-31T19:16:30.675Z,5.53
2023-03-31T19:18:59.239Z,3.73
2023-03-31T19:21:27.141Z,7.13
2023-03-31T19:23:55.033Z,5.63
2023-03-31T19:26:23.367Z,5.87
2023-03-31T19:28:51.143Z,6.93
2023-03-31T19:31:20.490Z,10.27
2023-03-31T19:33:48.403Z,10.00
2023-03-31T19:36:17.043Z,7.43
2023-03-31T19:38:45.121Z,7.33
2023-03-31T19:41:13.043Z,5.33
2023-03-31T19:43:40.789Z,4.87
2023-03-31T19:46:08.619Z,4.30
2023-03-31T19:48:37.918Z,4.27
2023-03-31T19:51:06.250Z,6.43
2023-03-31T19:53:34.173Z,6.57
2023-03-31T19:56:04.823Z,5.97
2023-03-31T19:58:35.390Z,6.67
2023-03-31T20:01:05.230Z,6.37
2023-03-31T20:03:34.203Z,5.63
2023-03-31T20:06:09.232Z,4.47
2023-03-31T20:08:38.149Z,5.17
2023-03-31T20:11:09.802Z,5.37
2023-03-31T20:13:38.334Z,8.80
2023-03-31T20:16:08.799Z,6.70
2023-03-31T20:18:37.911Z,7.10
2023-03-31T20:21:10.422Z,4.17
2023-03-31T20:23:39.001Z,6.20
2023-03-31T20:26:08.918Z,6.90
2023-03-31T20:28:38.377Z,11.37
2023-03-31T20:31:10.436Z,7.63
2023-03-31T20:33:38.482Z,5.57
2023-03-31T20:36:10.058Z,5.83
2023-03-31T20:38:38.663Z,3.77
2023-03-31T20:41:07.344Z,6.60
2023-03-31T20:43:36.658Z,6.30
2023-03-31T20:46:07.469Z,9.07
2023-03-31T20:48:37.626Z,5.33
2023-03-31T20:51:07.756Z,10.50
2023-03-31T20:53:41.638Z,7.20
2023-03-31T20:56:09.709Z,8.17
2023-03-31T20:58:37.656Z,6.30
2023-03-31T21:01:05.907Z,8.80
2023-03-31T21:03:34.029Z,4.93
2023-03-31T21:06:03.491Z,7.63
2023-03-31T21:08:32.949Z,6.43
2023-03-31T21:11:01.706Z,6.90
2023-03-31T21:13:31.305Z,5.67
2023-03-31T21:15:59.794Z,6.50
2023-03-31T21:18:28.990Z,9.70
2023-03-31T21:20:58.920Z,11.40
2023-03-31T21:23:28.123Z,5.00
2023-03-31T21:25:59.058Z,9.13
2023-03-31T21:28:28.584Z,3.33
2023-03-31T21:30:58.789Z,6.03
2023-03-31T21:33:26.914Z,6.50
2023-03-31T21:35:56.460Z,4.47
2023-03-31T21:38:24.483Z,3.50
2023-03-31T21:40:54.468Z,7.97
2023-03-31T21:43:24.524Z,7.40
2023-03-31T21:45:53.395Z,3.73
2023-03-31T21:48:25.048Z,6.03
2023-03-31T21:50:54.779Z,6.20
2023-03-31T21:53:23.569Z,8.90
2023-03-31T21:55:55.145Z,6.30
2023-03-31T21:58:25.263Z,4.57
2023-03-31T22:00:53.457Z,6.77
2023-03-31T22:03:27.022Z,4.87
2023-03-31T22:05:56.063Z,6.47
2023-03-31T22:08:23.826Z,4.40
2023-03-31T22:10:53.095Z,8.10
2023-03-31T22:13:21.596Z,3.80
2023-03-31T22:15:51.093Z,5.53
2023-03-31T22:18:19.144Z,5.37
2023-03-31T22:20:49.414Z,5.10
2023-03-31T22:23:17.639Z,6.37
2023-03-31T22:25:45.521Z,3.47
2023-03-31T22:28:14.420Z,5.17
2023-03-31T22:30:42.754Z,5.30
2023-03-31T22:33:12.061Z,7.30
2023-03-31T22:35:40.009Z,5.80
2023-03-31T22:38:08.705Z,5.30
2023-03-31T22:40:36.678Z,5.73
2023-03-31T22:43:04.773Z,4.20
2023-03-31T22:45:32.775Z,6.37
2023-03-31T22:48:00.923Z,5.67
2023-03-31T22:50:30.978Z,6.80
2023-03-31T22:52:58.828Z,6.13
2023-03-31T22:55:27.293Z,3.33
2023-03-31T22:57:55.117Z,5.67
2023-03-31T23:00:23.043Z,3.87
2023-03-31T23:02:50.880Z,4.43
2023-03-31T23:05:18.848Z,5.00
2023-03-31T23:07:48.246Z,3.37
2023-03-31T23:10:16.080Z,5.50
2023-03-31T23:12:44.211Z,3.70
2023-03-31T23:15:12.450Z,6.47
2023-03-31T23:17:40.525Z,7.30
2023-03-31T23:20:09.174Z,4.10
2023-03-31T23:22:36.952Z,4.90
2023-03-31T23:25:07.087Z,2.27
2023-03-31T23:27:34.938Z,3.70
2023-03-31T23:30:02.718Z,3.73
2023-03-31T23:32:30.495Z,6.67
2023-03-31T23:34:58.286Z,5.33
2023-03-31T23:37:26.372Z,3.13
2023-03-31T23:39:54.142Z,7.70
2023-03-31T23:42:23.355Z,4.33
2023-03-31T23:44:51.263Z,4.73
2023-03-31T23:47:19.367Z,4.73
2023-03-31T23:49:47.428Z,5.33
2023-03-31T23:52:15.282Z,4.43
2023-03-31T23:54:42.967Z,5.33
2023-03-31T23:57:11.121Z,5.27
2023-03-31T23:59:40.436Z,5.97
